createdAt,value
2023-01-19T00:01:40.295Z,92285.66
2023-01-19T00:04:08.030Z,92303.63
2023-01-19T00:06:35.448Z,92307.94
2023-01-19T00:09:03.264Z,92302.41
2023-01-19T00:11:30.890Z,92310.25
2023-01-19T00:13:59.033Z,92306.56
2023-01-19T00:16:26.349Z,92323.47
2023-01-19T00:18:54.062Z,92312.78
2023-01-19T00:21:22.469Z,92314.12
2023-01-19T00:23:52.747Z,92315.41
2023-01-19T00:26:22.413Z,92319.66
2023-01-19T00:28:50.543Z,92304.16
2023-01-19T00:31:20.808Z,92321.25
2023-01-19T00:33:49.492Z,92340.59
2023-01-19T00:36:16.925Z,92316.94
2023-01-19T00:38:44.261Z,92324.75
2023-01-19T00:41:11.918Z,92308.78
2023-01-19T00:43:39.223Z,92323.28
2023-01-19T00:46:06.782Z,92334.41
2023-01-19T00:48:34.506Z,92328.78
2023-01-19T00:51:01.769Z,92335.75
2023-01-19T00:53:32.671Z,92328.31
2023-01-19T00:56:00.277Z,92326.06
2023-01-19T00:58:27.625Z,92339.03
2023-01-19T01:00:57.991Z,92326.88
2023-01-19T01:03:28.292Z,92353.88
2023-01-19T01:05:55.727Z,92331.56
2023-01-19T01:08:23.137Z,92321.34
2023-01-19T01:10:51.502Z,92346.16
2023-01-19T01:13:20.571Z,92351.38
2023-01-19T01:15:53.297Z,92331.09
2023-01-19T01:18:21.115Z,92355.00
2023-01-19T01:20:48.829Z,92329.81
2023-01-19T01:23:16.735Z,92326.37
2023-01-19T01:25:46.808Z,92356.56
2023-01-19T01:28:14.041Z,92340.25
2023-01-19T01:30:43.559Z,92342.56
2023-01-19T01:33:11.964Z,92327.84
2023-01-19T01:35:39.866Z,92342.78
2023-01-19T01:38:08.076Z,92339.75
2023-01-19T01:40:35.257Z,92350.66
2023-01-19T01:43:02.979Z,92342.56
2023-01-19T01:45:35.332Z,92341.56
2023-01-19T01:48:10.606Z,92325.56
2023-01-19T01:51:03.747Z,92359.47
2023-01-19T01:53:34.233Z,92356.09
2023-01-19T01:56:06.990Z,92361.56
2023-01-19T01:58:35.936Z,92349.44
2023-01-19T02:01:22.742Z,92347.13
2023-01-19T02:03:50.478Z,92343.59
2023-01-19T02:06:18.019Z,92352.38
2023-01-19T02:09:10.940Z,92357.38
2023-01-19T02:11:57.440Z,92356.03
2023-01-19T02:14:24.711Z,92352.53
2023-01-19T02:16:52.663Z,92360.22
2023-01-19T02:19:30.487Z,92348.44
2023-01-19T02:22:50.587Z,92352.88
2023-01-19T02:25:20.514Z,92348.37
2023-01-19T02:27:50.819Z,92355.97
2023-01-19T02:30:19.005Z,92353.09
2023-01-19T02:32:46.399Z,92362.88
2023-01-19T02:35:15.360Z,92349.47
2023-01-19T02:37:44.535Z,92351.66
2023-01-19T02:40:13.326Z,92347.22
2023-01-19T02:42:46.638Z,92352.66
2023-01-19T02:45:15.560Z,92352.66
2023-01-19T02:47:52.147Z,92335.94
2023-01-19T02:50:37.690Z,92342.00
2023-01-19T02:53:11.838Z,92340.00
2023-01-19T02:55:40.549Z,92353.44
2023-01-19T02:58:11.993Z,92339.22
2023-01-19T03:01:00.712Z,92357.00
2023-01-19T03:03:33.220Z,92334.81
2023-01-19T03:06:18.591Z,92348.44
2023-01-19T03:09:15.769Z,92339.00
2023-01-19T03:11:50.499Z,92350.66
2023-01-19T03:14:23.718Z,92348.34
2023-01-19T03:16:57.073Z,92337.81
2023-01-19T03:19:32.140Z,92334.50
2023-01-19T03:22:03.974Z,92353.81
2023-01-19T03:24:37.107Z,92344.31
2023-01-19T03:27:14.504Z,92340.69
2023-01-19T03:29:47.576Z,92333.34
2023-01-19T03:32:18.062Z,92344.88
2023-01-19T03:34:49.554Z,92335.94
2023-01-19T03:37:19.635Z,92343.66
2023-01-19T03:39:47.437Z,92342.06
2023-01-19T03:42:17.303Z,92345.75
2023-01-19T03:44:46.604Z,92344.97
2023-01-19T03:47:15.229Z,92343.16
2023-01-19T03:49:45.882Z,92342.59
2023-01-19T03:52:14.399Z,92334.25
2023-01-19T03:54:42.013Z,92340.78
2023-01-19T03:57:10.297Z,92342.09
2023-01-19T03:59:37.920Z,92340.28
2023-01-19T04:02:05.303Z,92336.59
2023-01-19T04:04:33.103Z,92338.69
2023-01-19T04:07:01.491Z,92334.19
2023-01-19T04:09:28.879Z,92333.09
2023-01-19T04:11:57.435Z,92335.72
2023-01-19T04:14:24.828Z,92339.66
2023-01-19T04:16:52.331Z,92331.25
2023-01-19T04:19:19.889Z,92340.66
2023-01-19T04:21:50.981Z,92338.31
2023-01-19T04:24:18.889Z,92358.97
2023-01-19T04:26:46.624Z,92347.50
2023-01-19T04:29:14.499Z,92347.22
2023-01-19T04:31:42.045Z,92340.69
2023-01-19T04:34:10.466Z,92334.75
2023-01-19T04:36:37.798Z,92329.59
2023-01-19T04:39:05.316Z,92326.37
2023-01-19T04:41:33.095Z,92319.53
2023-01-19T04:44:00.721Z,92316.53
2023-01-19T04:46:28.218Z,92321.13
2023-01-19T04:48:55.896Z,92320.72
2023-01-19T04:51:23.286Z,92319.97
2023-01-19T04:53:50.560Z,92312.88
2023-01-19T04:56:18.227Z,92312.13
2023-01-19T04:58:45.543Z,92312.03
2023-01-19T05:01:13.173Z,92305.72
2023-01-19T05:03:40.942Z,92312.44
2023-01-19T05:06:10.897Z,92317.47
2023-01-19T05:08:38.495Z,92303.59
2023-01-19T05:11:06.208Z,92315.19
2023-01-19T05:13:33.712Z,92320.63
2023-01-19T05:16:01.745Z,92320.34
2023-01-19T05:18:30.073Z,92329.91
2023-01-19T05:20:57.468Z,92328.88
2023-01-19T05:23:24.839Z,92328.50
2023-01-19T05:25:52.635Z,92327.94
2023-01-19T05:28:21.357Z,92338.06
2023-01-19T05:30:52.102Z,92344.44
2023-01-19T05:33:20.146Z,92345.88
2023-01-19T05:35:50.620Z,92337.47
2023-01-19T05:38:23.340Z,92343.34
2023-01-19T05:40:58.309Z,92347.03
2023-01-19T05:43:25.946Z,92352.94
2023-01-19T05:45:53.360Z,92353.91
2023-01-19T05:48:21.083Z,92366.97
2023-01-19T05:50:49.775Z,92350.22
2023-01-19T05:53:17.353Z,92368.03
2023-01-19T05:55:45.124Z,92365.94
2023-01-19T05:58:12.464Z,92355.09
2023-01-19T06:00:39.803Z,92371.09
2023-01-19T06:03:07.541Z,92357.72
2023-01-19T06:05:35.667Z,92346.91
2023-01-19T06:08:03.183Z,92356.47
2023-01-19T06:10:31.059Z,92356.19
2023-01-19T06:12:59.101Z,92348.25
2023-01-19T06:15:26.723Z,92354.06
2023-01-19T06:17:54.379Z,92366.88
2023-01-19T06:20:21.882Z,92368.59
2023-01-19T06:22:49.271Z,92365.59
2023-01-19T06:25:17.056Z,92377.56
2023-01-19T06:27:45.569Z,92362.28
2023-01-19T06:30:13.868Z,92363.28
2023-01-19T06:32:41.674Z,92353.19
2023-01-19T06:35:09.465Z,92380.25
2023-01-19T06:37:36.920Z,92350.78
2023-01-19T06:40:05.323Z,92366.28
2023-01-19T06:42:32.854Z,92380.22
2023-01-19T06:45:00.308Z,92372.31
2023-01-19T06:47:28.110Z,92365.69
2023-01-19T06:49:55.390Z,92360.16
2023-01-19T06:52:22.835Z,92363.69
2023-01-19T06:54:50.482Z,92352.94
2023-01-19T06:57:17.920Z,92356.78
2023-01-19T06:59:45.323Z,92368.50
2023-01-19T07:02:26.357Z,92343.78
2023-01-19T07:04:56.569Z,92356.31
2023-01-19T07:07:24.437Z,92341.41
2023-01-19T07:09:53.984Z,92350.81
2023-01-19T07:12:22.762Z,92358.63
2023-01-19T07:14:50.499Z,92352.75
2023-01-19T07:17:17.836Z,92364.41
2023-01-19T07:19:46.036Z,92342.88
2023-01-19T07:22:13.840Z,92340.78
2023-01-19T07:24:41.603Z,92350.22
2023-01-19T07:27:09.010Z,92360.66
2023-01-19T07:29:36.635Z,92359.09
2023-01-19T07:32:04.570Z,92355.69
2023-01-19T07:34:32.061Z,92340.91
2023-01-19T07:36:59.838Z,92345.19
2023-01-19T07:39:27.234Z,92342.63
2023-01-19T07:41:54.612Z,92348.00
2023-01-19T07:44:23.776Z,92343.81
2023-01-19T07:46:51.402Z,92338.06
2023-01-19T07:49:18.844Z,92339.72
2023-01-19T07:51:47.021Z,92342.31
2023-01-19T07:54:14.337Z,92345.78
2023-01-19T07:56:41.647Z,92358.88
2023-01-19T07:59:11.012Z,92301.28
2023-01-19T08:01:38.429Z,92353.63
2023-01-19T08:04:06.566Z,92359.94
2023-01-19T08:06:37.233Z,92352.22
2023-01-19T08:09:08.653Z,92342.41
2023-01-19T08:11:36.857Z,92346.09
2023-01-19T08:14:05.770Z,92378.03
2023-01-19T08:16:35.588Z,92382.91
2023-01-19T08:19:03.943Z,92374.50
2023-01-19T08:21:33.479Z,92392.97
2023-01-19T08:24:00.896Z,92356.84
2023-01-19T08:26:34.657Z,92377.59
2023-01-19T08:29:05.507Z,92370.22
2023-01-19T08:31:33.349Z,92384.81
2023-01-19T08:34:00.939Z,92379.72
2023-01-19T08:36:29.082Z,92374.59
2023-01-19T08:38:56.827Z,92383.34
2023-01-19T08:41:24.250Z,92383.78
2023-01-19T08:43:51.650Z,92377.94
2023-01-19T08:46:22.092Z,92397.06
2023-01-19T08:48:50.588Z,92378.94
2023-01-19T08:51:19.071Z,92364.34
2023-01-19T08:53:47.324Z,92375.75
2023-01-19T08:56:15.358Z,92403.00
2023-01-19T08:58:45.681Z,92392.34
2023-01-19T09:01:17.712Z,92400.41
2023-01-19T09:03:45.077Z,92391.50
2023-01-19T09:06:16.582Z,92371.31
2023-01-19T09:08:44.347Z,92375.91
2023-01-19T09:11:13.711Z,92377.47
2023-01-19T09:13:41.849Z,92380.25
2023-01-19T09:16:11.638Z,92412.41
2023-01-19T09:18:39.621Z,92396.13
2023-01-19T09:21:08.463Z,92386.91
2023-01-19T09:23:36.840Z,92365.78
2023-01-19T09:26:06.519Z,92376.59
2023-01-19T09:28:34.419Z,92408.63
2023-01-19T09:31:06.869Z,92404.88
2023-01-19T09:33:35.880Z,92391.41
2023-01-19T09:36:03.490Z,92407.06
2023-01-19T09:38:33.050Z,92405.31
2023-01-19T09:41:01.594Z,92399.16
2023-01-19T09:43:41.386Z,92397.50
2023-01-19T09:46:35.784Z,92391.97
2023-01-19T09:49:12.930Z,92382.81
2023-01-19T09:51:46.335Z,92381.59
2023-01-19T09:54:19.539Z,92359.50
2023-01-19T09:56:52.115Z,92349.03
2023-01-19T09:59:29.029Z,92350.50
2023-01-19T10:02:31.915Z,92363.44
2023-01-19T10:05:23.277Z,92366.22
2023-01-19T10:08:09.793Z,92425.94
2023-01-19T10:10:40.671Z,92410.72
2023-01-19T10:13:47.197Z,92374.28
2023-01-19T10:16:40.033Z,92403.78
2023-01-19T10:19:26.226Z,92387.22
2023-01-19T10:21:58.136Z,92355.97
2023-01-19T10:24:37.620Z,92337.03
2023-01-19T10:27:13.771Z,92326.75
2023-01-19T10:29:41.371Z,92366.72
2023-01-19T10:32:26.252Z,92364.34
2023-01-19T10:34:55.000Z,92350.22
2023-01-19T10:37:30.211Z,92348.53
2023-01-19T10:40:09.903Z,92363.72
2023-01-19T10:42:40.578Z,92368.56
2023-01-19T10:45:18.971Z,92341.94
2023-01-19T10:47:47.416Z,92327.63
2023-01-19T10:50:31.329Z,92345.28
2023-01-19T10:53:01.715Z,92334.19
2023-01-19T10:55:40.675Z,92343.75
2023-01-19T10:58:31.185Z,92339.47
2023-01-19T11:01:23.339Z,92329.69
2023-01-19T11:03:53.582Z,92347.44
2023-01-19T11:06:22.504Z,92334.75
2023-01-19T11:08:52.012Z,92330.84
2023-01-19T11:11:21.775Z,92310.56
2023-01-19T11:14:07.393Z,92320.69
2023-01-19T11:16:38.088Z,92310.72
2023-01-19T11:19:07.723Z,92324.34
2023-01-19T11:21:35.464Z,92318.75
2023-01-19T11:24:09.190Z,92321.09
2023-01-19T11:26:49.430Z,92326.06
2023-01-19T11:29:23.126Z,92312.66
2023-01-19T11:31:52.554Z,92313.00
2023-01-19T11:34:22.813Z,92337.84
2023-01-19T11:37:06.027Z,92327.50
2023-01-19T11:39:47.922Z,92321.69
2023-01-19T11:42:18.080Z,92305.38
2023-01-19T11:45:06.733Z,92310.09
2023-01-19T11:47:41.644Z,92303.31
2023-01-19T11:50:15.669Z,92304.81
2023-01-19T11:52:46.188Z,92307.56
2023-01-19T11:55:32.189Z,92291.50
2023-01-19T11:58:00.057Z,92301.84
2023-01-19T12:00:36.315Z,92320.31
2023-01-19T12:03:07.015Z,92304.88
2023-01-19T12:05:37.468Z,92306.12
2023-01-19T12:08:11.636Z,92312.13
2023-01-19T12:10:44.995Z,92301.84
2023-01-19T12:13:23.903Z,92309.47
2023-01-19T12:15:58.096Z,92300.78
2023-01-19T12:18:30.594Z,92305.97
2023-01-19T12:20:59.052Z,92308.59
2023-01-19T12:24:11.683Z,92311.81
2023-01-19T12:26:51.517Z,92303.41
2023-01-19T12:29:24.966Z,92306.44
2023-01-19T12:32:14.194Z,92308.88
2023-01-19T12:34:50.203Z,92321.34
2023-01-19T12:37:26.425Z,92312.84
2023-01-19T12:39:56.541Z,92318.09
2023-01-19T12:42:24.983Z,92309.31
2023-01-19T12:45:07.073Z,92309.00
2023-01-19T12:47:35.484Z,92315.72
2023-01-19T12:50:17.193Z,92304.78
2023-01-19T12:52:51.835Z,92318.87
2023-01-19T12:55:34.802Z,92335.91
2023-01-19T12:58:18.068Z,92340.13
2023-01-19T13:00:48.511Z,92342.75
2023-01-19T13:03:19.412Z,92322.16
2023-01-19T13:05:55.504Z,92332.91
2023-01-19T13:08:30.647Z,92329.41
2023-01-19T13:11:05.185Z,92333.19
2023-01-19T13:13:40.271Z,92334.84
2023-01-19T13:16:20.087Z,92331.19
2023-01-19T13:19:13.572Z,92325.69
2023-01-19T13:21:47.185Z,92331.69
2023-01-19T13:24:17.786Z,92337.59
2023-01-19T13:26:54.951Z,92323.34
2023-01-19T13:29:36.675Z,92330.12
2023-01-19T13:32:17.777Z,92339.88
2023-01-19T13:34:51.884Z,92358.81
2023-01-19T13:37:23.342Z,92332.97
2023-01-19T13:39:53.897Z,92347.63
2023-01-19T13:42:28.230Z,92340.66
2023-01-19T13:44:59.962Z,92334.81
2023-01-19T13:47:49.725Z,92326.78
2023-01-19T13:50:30.689Z,92329.34
2023-01-19T13:52:59.496Z,92314.09
2023-01-19T13:55:28.189Z,92307.94
2023-01-19T13:57:56.331Z,92312.38
2023-01-19T14:00:33.590Z,92309.28
2023-01-19T14:03:02.631Z,92313.31
2023-01-19T14:05:38.272Z,92314.09
2023-01-19T14:08:09.155Z,92321.41
2023-01-19T14:10:39.088Z,92333.22
2023-01-19T14:13:15.045Z,92337.06
2023-01-19T14:15:43.410Z,92331.56
2023-01-19T14:18:19.755Z,92328.00
2023-01-19T14:21:03.860Z,92306.69
2023-01-19T14:23:38.115Z,92323.31
2023-01-19T14:26:06.341Z,92334.50
2023-01-19T14:28:44.348Z,92332.59
2023-01-19T14:31:21.162Z,92350.69
2023-01-19T14:33:53.437Z,92344.81
2023-01-19T14:36:33.900Z,92340.91
2023-01-19T14:39:02.552Z,92337.69
2023-01-19T14:41:30.312Z,92334.91
2023-01-19T14:43:59.834Z,92335.25
2023-01-19T14:46:28.299Z,92340.75
2023-01-19T14:49:05.893Z,92332.66
2023-01-19T14:51:33.794Z,92334.94
2023-01-19T14:54:02.567Z,92334.66
2023-01-19T14:56:33.071Z,92332.09
2023-01-19T14:59:02.499Z,92336.00
2023-01-19T15:01:31.358Z,92340.16
2023-01-19T15:03:58.952Z,92327.63
2023-01-19T15:06:27.052Z,92324.97
2023-01-19T15:08:54.872Z,92335.81
2023-01-19T15:11:34.300Z,92349.69
2023-01-19T15:14:02.688Z,92352.56
2023-01-19T15:16:33.234Z,92342.88
2023-01-19T15:19:00.916Z,92357.34
2023-01-19T15:21:29.059Z,92356.84
2023-01-19T15:23:58.387Z,92354.84
2023-01-19T15:26:27.359Z,92367.28
2023-01-19T15:28:56.494Z,92359.16
2023-01-19T15:31:26.221Z,92353.66
2023-01-19T15:33:53.913Z,92338.66
2023-01-19T15:36:24.427Z,92340.84
2023-01-19T15:38:52.022Z,92339.06
2023-01-19T15:41:25.358Z,92340.97
2023-01-19T15:43:53.618Z,92343.84
2023-01-19T15:46:22.315Z,92347.34
2023-01-19T15:48:50.776Z,92343.22
2023-01-19T15:51:21.727Z,92342.13
2023-01-19T15:53:49.824Z,92348.44
2023-01-19T15:56:23.662Z,92350.53
2023-01-19T15:58:52.184Z,92343.22
2023-01-19T16:01:24.972Z,92350.75
2023-01-19T16:03:52.956Z,92368.31
2023-01-19T16:06:20.545Z,92369.91
2023-01-19T16:08:47.897Z,92376.44
2023-01-19T16:11:18.581Z,92380.66
2023-01-19T16:13:46.563Z,92398.22
2023-01-19T16:16:18.999Z,92406.00
2023-01-19T16:18:46.873Z,92421.69
2023-01-19T16:21:14.411Z,92412.13
2023-01-19T16:23:42.133Z,92416.72
2023-01-19T16:26:34.611Z,92417.78
2023-01-19T16:29:10.017Z,92415.16
2023-01-19T16:31:42.696Z,92411.69
2023-01-19T16:34:10.443Z,92419.38
2023-01-19T16:36:42.848Z,92417.59
2023-01-19T16:39:14.820Z,92408.44
2023-01-19T16:41:43.929Z,92406.06
2023-01-19T16:44:15.904Z,92411.09
2023-01-19T16:46:46.005Z,92417.13
2023-01-19T16:49:15.327Z,92418.44
2023-01-19T16:51:43.644Z,92430.50
2023-01-19T16:54:16.811Z,92425.00
2023-01-19T16:56:44.441Z,92422.34
2023-01-19T16:59:14.171Z,92428.91
2023-01-19T17:01:42.472Z,92440.25
2023-01-19T17:04:09.953Z,92468.06
2023-01-19T17:06:37.924Z,92464.91
2023-01-19T17:09:06.522Z,92462.81
2023-01-19T17:11:35.134Z,92467.78
2023-01-19T17:14:06.333Z,92467.78
2023-01-19T17:16:35.948Z,92455.97
2023-01-19T17:19:06.504Z,92445.00
2023-01-19T17:21:34.805Z,92437.41
2023-01-19T17:24:02.277Z,92452.31
2023-01-19T17:26:31.306Z,92469.09
2023-01-19T17:29:03.780Z,92475.66
2023-01-19T17:31:32.471Z,92481.38
2023-01-19T17:34:00.368Z,92467.78
2023-01-19T17:36:29.548Z,92457.59
2023-01-19T17:39:00.283Z,92439.53
2023-01-19T17:41:32.815Z,92453.38
2023-01-19T17:44:01.686Z,92428.75
2023-01-19T17:46:29.917Z,92425.34
2023-01-19T17:48:59.500Z,92431.38
2023-01-19T17:51:28.764Z,92414.59
2023-01-19T17:53:57.755Z,92419.81
2023-01-19T17:56:29.972Z,92426.94
2023-01-19T17:58:58.756Z,92431.38
2023-01-19T18:01:31.944Z,92439.78
2023-01-19T18:04:00.849Z,92444.75
2023-01-19T18:06:28.340Z,92449.19
2023-01-19T18:08:57.183Z,92452.63
2023-01-19T18:11:25.677Z,92459.16
2023-01-19T18:13:53.455Z,92463.34
2023-01-19T18:16:23.976Z,92470.94
2023-01-19T18:18:53.880Z,92462.81
2023-01-19T18:21:22.495Z,92455.22
2023-01-19T18:23:51.433Z,92454.44
2023-01-19T18:26:21.304Z,92446.56
2023-01-19T18:28:51.643Z,92445.53
2023-01-19T18:31:19.586Z,92440.28
2023-01-19T18:33:50.102Z,92451.84
2023-01-19T18:36:18.487Z,92435.06
2023-01-19T18:38:46.959Z,92443.44
2023-01-19T18:41:16.479Z,92446.31
2023-01-19T18:43:44.158Z,92438.97
2023-01-19T18:46:11.977Z,92441.06
2023-01-19T18:48:39.853Z,92444.47
2023-01-19T18:51:08.959Z,92450.25
2023-01-19T18:53:37.341Z,92454.97
2023-01-19T18:56:05.943Z,92450.53
2023-01-19T18:58:36.587Z,92443.94
2023-01-19T19:01:04.971Z,92440.28
2023-01-19T19:03:32.554Z,92438.22
2023-01-19T19:06:04.012Z,92431.91
2023-01-19T19:08:33.125Z,92434.53
2023-01-19T19:11:00.533Z,92441.09
2023-01-19T19:13:27.956Z,92442.09
2023-01-19T19:16:03.309Z,92453.63
2023-01-19T19:18:31.217Z,92459.62
2023-01-19T19:20:58.985Z,92456.44
2023-01-19T19:23:26.513Z,92442.88
2023-01-19T19:25:53.997Z,92451.53
2023-01-19T19:28:22.040Z,92454.69
2023-01-19T19:30:52.704Z,92462.00
2023-01-19T19:33:20.065Z,92458.84
2023-01-19T19:35:48.264Z,92472.38
2023-01-19T19:38:15.694Z,92485.00
2023-01-19T19:40:43.266Z,92491.00
2023-01-19T19:43:10.933Z,92490.44
2023-01-19T19:45:38.864Z,92488.00
2023-01-19T19:48:06.362Z,92490.34
2023-01-19T19:50:37.199Z,92486.25
2023-01-19T19:53:04.513Z,92487.56
2023-01-19T19:55:31.927Z,92492.47
2023-01-19T19:57:59.622Z,92497.97
2023-01-19T20:00:26.926Z,92497.38
2023-01-19T20:02:55.375Z,92499.72
2023-01-19T20:05:22.743Z,92502.28
2023-01-19T20:07:50.085Z,92493.34
2023-01-19T20:10:18.209Z,92487.09
2023-01-19T20:12:45.843Z,92477.09
2023-01-19T20:15:13.206Z,92478.97
2023-01-19T20:17:41.063Z,92471.59
2023-01-19T20:20:09.258Z,92456.31
2023-01-19T20:22:36.558Z,92455.28
2023-01-19T20:25:04.567Z,92463.56
2023-01-19T20:27:32.063Z,92466.44
2023-01-19T20:30:00.521Z,92472.44
2023-01-19T20:32:28.255Z,92466.62
2023-01-19T20:34:55.602Z,92463.97
2023-01-19T20:37:23.031Z,92454.03
2023-01-19T20:39:50.745Z,92447.44
2023-01-19T20:42:18.342Z,92445.84
2023-01-19T20:44:45.925Z,92444.66
2023-01-19T20:47:13.634Z,92446.91
2023-01-19T20:49:41.335Z,92448.69
2023-01-19T20:52:08.937Z,92443.66
2023-01-19T20:54:36.722Z,92437.72
2023-01-19T20:57:04.119Z,92428.59
2023-01-19T20:59:34.267Z,92420.19
2023-01-19T21:02:02.205Z,92415.00
2023-01-19T21:04:29.643Z,92403.09
2023-01-19T21:06:57.035Z,92411.97
2023-01-19T21:09:24.795Z,92408.06
2023-01-19T21:11:52.224Z,92408.00
2023-01-19T21:14:19.540Z,92407.47
2023-01-19T21:16:47.379Z,92416.00
2023-01-19T21:19:14.884Z,92419.97
2023-01-19T21:21:42.297Z,92413.75
2023-01-19T21:24:11.007Z,92403.00
2023-01-19T21:26:38.623Z,92401.91
2023-01-19T21:29:06.012Z,92409.91
2023-01-19T21:31:33.752Z,92408.66
2023-01-19T21:34:01.187Z,92421.81
2023-01-19T21:36:28.667Z,92414.28
2023-01-19T21:39:00.786Z,92426.63
2023-01-19T21:41:30.254Z,92443.16
2023-01-19T21:44:00.154Z,92437.53
2023-01-19T21:46:29.705Z,92437.38
2023-01-19T21:49:01.837Z,92432.94
2023-01-19T21:51:33.713Z,92423.84
2023-01-19T21:54:02.834Z,92414.75
2023-01-19T21:56:31.304Z,92414.06
2023-01-19T21:59:03.067Z,92403.69
2023-01-19T22:01:34.858Z,92404.19
2023-01-19T22:04:02.840Z,92397.00
2023-01-19T22:06:30.272Z,92385.75
2023-01-19T22:08:58.502Z,92384.16
2023-01-19T22:11:26.753Z,92376.91
2023-01-19T22:13:54.943Z,92387.28
2023-01-19T22:16:24.121Z,92394.31
2023-01-19T22:18:54.457Z,92387.09
2023-01-19T22:21:24.383Z,92385.13
2023-01-19T22:23:54.340Z,92393.06
2023-01-19T22:26:22.211Z,92381.00
2023-01-19T22:28:55.069Z,92372.56
2023-01-19T22:31:24.272Z,92370.41
2023-01-19T22:33:52.380Z,92369.53
2023-01-19T22:36:22.121Z,92364.13
2023-01-19T22:38:55.116Z,92359.41
2023-01-19T22:41:31.500Z,92348.53
2023-01-19T22:44:01.543Z,92335.47
2023-01-19T22:46:31.871Z,92320.56
2023-01-19T22:49:00.396Z,92320.13
2023-01-19T22:51:30.293Z,92323.03
2023-01-19T22:53:58.819Z,92326.22
2023-01-19T22:56:28.661Z,92326.56
2023-01-19T22:58:56.466Z,92330.09
2023-01-19T23:01:33.853Z,92329.84
2023-01-19T23:04:02.697Z,92328.28
2023-01-19T23:06:33.066Z,92330.22
2023-01-19T23:09:02.682Z,92320.22
2023-01-19T23:11:35.953Z,92319.69
2023-01-19T23:14:04.656Z,92322.44
2023-01-19T23:16:32.214Z,92324.25
2023-01-19T23:18:59.955Z,92314.38
2023-01-19T23:21:29.590Z,92322.78
2023-01-19T23:24:02.260Z,92315.72
2023-01-19T23:26:30.957Z,92319.22
2023-01-19T23:29:00.875Z,92334.94
2023-01-19T23:31:30.657Z,92341.87
2023-01-19T23:34:02.091Z,92344.41
2023-01-19T23:36:32.250Z,92340.59
2023-01-19T23:39:03.124Z,92357.72
2023-01-19T23:41:33.360Z,92364.28
2023-01-19T23:44:01.007Z,92371.87
2023-01-19T23:46:28.774Z,92378.37
2023-01-19T23:48:56.570Z,92408.00
2023-01-19T23:51:27.723Z,92422.56
2023-01-19T23:53:55.181Z,92448.00
2023-01-19T23:56:24.381Z,92442.66
2023-01-19T23:58:57.764Z,92447.50
